createdAt,value
2022-10-05T10:30:19.011Z,3.10
2022-10-05T10:31:47.905Z,2.78
2022-10-05T10:33:22.417Z,2.05
2022-10-05T10:34:50.143Z,2.00
2022-10-05T10:36:01.601Z,2.33
2022-10-05T10:37:36.281Z,3.60
2022-10-05T10:38:58.549Z,3.08
2022-10-05T10:40:21.288Z,2.03
2022-10-05T10:42:01.360Z,2.30
2022-10-05T10:43:41.178Z,2.65
2022-10-05T10:45:10.435Z,2.90
2022-10-05T10:46:28.110Z,2.78
2022-10-05T10:47:49.895Z,2.83
2022-10-05T10:49:17.017Z,2.20
2022-10-05T10:50:35.498Z,3.65
2022-10-05T10:52:13.290Z,4.00
2022-10-05T10:53:34.415Z,1.85
2022-10-05T10:55:16.942Z,9.20
2022-10-05T10:56:32.044Z,2.28
2022-10-05T10:57:51.320Z,2.20
2022-10-05T10:59:25.559Z,2.25
2022-10-05T11:00:55.192Z,1.77
2022-10-05T11:02:38.916Z,1.90
2022-10-05T11:04:16.368Z,2.63
2022-10-05T11:05:33.908Z,2.17
2022-10-05T11:07:08.618Z,2.00
2022-10-05T11:08:58.580Z,3.45
2022-10-05T11:10:19.905Z,2.30
2022-10-05T11:11:52.498Z,1.83
2022-10-05T11:13:27.477Z,2.33
2022-10-05T11:14:48.256Z,1.60
2022-10-05T11:16:27.309Z,3.13
2022-10-05T11:17:59.600Z,1.65
2022-10-05T11:21:08.151Z,1.50
2022-10-05T11:22:32.487Z,1.85
2022-10-05T11:24:06.486Z,2.20
2022-10-05T11:25:29.278Z,2.22
2022-10-05T11:26:56.469Z,1.60
2022-10-05T11:28:17.880Z,5.68
2022-10-05T11:29:30.222Z,1.48
2022-10-05T11:31:01.842Z,2.30
2022-10-05T11:32:36.942Z,2.15
2022-10-05T11:34:10.601Z,2.20
2022-10-05T11:35:52.341Z,2.40
2022-10-05T11:37:18.768Z,2.13
2022-10-05T11:38:51.335Z,1.88
2022-10-05T11:40:29.558Z,1.70
2022-10-05T11:42:04.674Z,1.33
2022-10-05T11:43:41.828Z,2.40
2022-10-05T11:45:16.289Z,2.28
2022-10-05T11:46:30.732Z,2.65
2022-10-05T11:47:52.146Z,1.33
2022-10-05T11:49:19.557Z,1.80
2022-10-05T11:50:30.538Z,1.40
2022-10-05T11:51:48.438Z,1.77
2022-10-05T11:52:59.121Z,1.40
2022-10-05T11:54:23.447Z,1.45
2022-10-05T11:55:32.864Z,1.50
2022-10-05T11:56:40.153Z,1.67
2022-10-05T11:57:51.465Z,1.88
2022-10-05T11:58:58.519Z,2.25
2022-10-05T12:00:14.681Z,2.20
2022-10-05T12:01:28.723Z,1.33
2022-10-05T12:02:59.427Z,1.48
2022-10-05T12:04:16.476Z,1.55
2022-10-05T12:05:22.354Z,1.65
2022-10-05T12:06:53.957Z,1.63
2022-10-05T12:08:08.769Z,1.20
2022-10-05T12:09:29.724Z,1.35
2022-10-05T12:10:40.872Z,2.47
2022-10-05T12:11:58.558Z,1.20
2022-10-05T12:13:27.974Z,1.45
2022-10-05T12:14:44.137Z,1.58
2022-10-05T12:15:53.427Z,1.70
2022-10-05T12:17:03.467Z,2.10
2022-10-05T12:18:14.014Z,1.42
2022-10-05T12:19:28.391Z,1.40
2022-10-05T12:20:41.225Z,1.92
2022-10-05T12:21:52.884Z,1.75
2022-10-05T12:24:11.313Z,2.63
2022-10-05T12:25:28.484Z,2.05
2022-10-05T12:26:38.044Z,1.45
2022-10-05T12:27:44.126Z,2.72
2022-10-05T12:28:52.955Z,1.48
2022-10-05T12:30:03.641Z,1.75
2022-10-05T12:31:23.640Z,1.20
2022-10-05T12:32:36.401Z,1.88
2022-10-05T12:33:46.389Z,2.03
2022-10-05T12:35:01.870Z,2.50
2022-10-05T12:36:13.180Z,2.15
2022-10-05T12:37:40.208Z,2.30
2022-10-05T12:38:51.859Z,1.63
2022-10-05T12:41:11.148Z,2.75
2022-10-05T12:42:26.168Z,2.33
2022-10-05T12:43:41.273Z,1.92
2022-10-05T12:45:15.403Z,2.17
2022-10-05T12:46:33.893Z,2.20
2022-10-05T12:47:53.927Z,2.20
2022-10-05T12:49:25.592Z,2.28
2022-10-05T12:50:35.044Z,2.08
2022-10-05T12:51:42.361Z,2.33
2022-10-05T12:53:04.332Z,3.88
2022-10-05T12:54:18.646Z,1.50
2022-10-05T12:55:26.329Z,1.80
2022-10-05T12:56:45.504Z,1.77
2022-10-05T12:58:00.877Z,2.50
2022-10-05T12:59:14.425Z,1.98
2022-10-05T13:00:23.156Z,1.65
2022-10-05T13:01:39.641Z,1.92
2022-10-05T13:02:49.221Z,6.82
2022-10-05T13:03:58.882Z,1.77
2022-10-05T13:05:21.358Z,1.33
2022-10-05T13:06:32.920Z,2.00
2022-10-05T13:07:50.584Z,1.60
2022-10-05T13:09:06.590Z,2.15
2022-10-05T13:10:21.207Z,1.10
2022-10-05T13:11:35.257Z,1.75
2022-10-05T13:12:51.237Z,1.80
2022-10-05T13:14:02.505Z,1.77
2022-10-05T13:15:18.198Z,2.20
2022-10-05T13:16:31.563Z,2.22
2022-10-05T13:17:42.371Z,2.20
2022-10-05T13:18:59.122Z,2.03
2022-10-05T13:20:14.802Z,1.75
2022-10-05T13:21:24.904Z,1.50
2022-10-05T13:22:37.473Z,1.85
2022-10-05T13:23:57.137Z,1.45
2022-10-05T13:25:19.776Z,1.50
2022-10-05T13:26:28.208Z,1.70
2022-10-05T13:27:38.184Z,1.85
2022-10-05T13:28:47.660Z,1.13
2022-10-05T13:29:55.963Z,2.00
2022-10-05T13:31:07.889Z,1.40
2022-10-05T13:32:16.566Z,1.40
2022-10-05T13:33:29.586Z,1.33
2022-10-05T13:34:40.324Z,1.58
2022-10-05T13:35:52.829Z,2.10
2022-10-05T13:37:08.673Z,2.42
2022-10-05T13:38:23.645Z,2.17
2022-10-05T13:39:39.347Z,1.52
2022-10-05T13:40:51.273Z,1.30
2022-10-05T13:42:00.127Z,2.00
2022-10-05T13:43:19.161Z,1.52
2022-10-05T13:44:32.606Z,2.30
2022-10-05T13:45:45.773Z,1.80
2022-10-05T13:46:50.179Z,1.90
2022-10-05T13:48:11.906Z,2.45
2022-10-05T13:49:26.626Z,2.95
2022-10-05T13:50:34.135Z,3.17
2022-10-05T13:51:46.886Z,2.53
2022-10-05T13:52:56.547Z,3.10
2022-10-05T13:54:07.561Z,1.83
2022-10-05T13:55:23.853Z,2.10
2022-10-05T13:56:30.738Z,1.80
2022-10-05T13:57:48.341Z,2.78
2022-10-05T13:59:01.333Z,2.00
2022-10-05T14:00:13.925Z,1.65
2022-10-05T14:01:25.148Z,3.03
2022-10-05T14:02:30.492Z,2.17
2022-10-05T14:03:37.590Z,3.88
2022-10-05T14:04:47.059Z,2.28
2022-10-05T14:05:57.778Z,2.15
2022-10-05T14:07:23.403Z,1.38
2022-10-05T14:08:34.690Z,2.97
2022-10-05T14:09:37.128Z,1.95
2022-10-05T14:10:44.147Z,1.83
2022-10-05T14:11:53.556Z,2.47
2022-10-05T14:12:58.255Z,2.25
2022-10-05T14:14:15.253Z,1.90
2022-10-05T14:15:21.473Z,1.45
2022-10-05T14:16:28.174Z,1.75
2022-10-05T14:17:43.903Z,1.60
2022-10-05T14:18:58.565Z,2.20
2022-10-05T14:20:03.044Z,3.13
2022-10-05T14:21:22.293Z,1.88
2022-10-05T14:22:27.631Z,4.07
2022-10-05T14:23:32.499Z,3.25
2022-10-05T14:24:45.024Z,3.83
2022-10-05T14:25:54.200Z,1.92
2022-10-05T14:26:58.773Z,2.35
2022-10-05T14:28:06.387Z,1.60
2022-10-05T14:29:19.130Z,1.90
2022-10-05T14:30:25.835Z,3.35
2022-10-05T14:31:31.329Z,1.60
2022-10-05T14:32:50.464Z,1.83
2022-10-05T14:33:52.670Z,1.88
2022-10-05T14:35:15.761Z,1.92
2022-10-05T14:36:35.149Z,2.13
2022-10-05T14:37:53.386Z,4.70
2022-10-05T14:38:57.918Z,4.57
2022-10-05T14:40:23.554Z,2.92
2022-10-05T14:41:28.532Z,1.70
2022-10-05T14:42:47.274Z,1.77
2022-10-05T14:43:51.684Z,1.63
2022-10-05T14:45:02.843Z,1.70
2022-10-05T14:46:27.190Z,1.90
2022-10-05T14:47:39.710Z,2.28
2022-10-05T14:50:10.799Z,3.63
2022-10-05T14:51:31.929Z,2.10
2022-10-05T14:52:34.857Z,4.22
2022-10-05T14:53:58.780Z,2.63
2022-10-05T14:55:08.690Z,2.78
2022-10-05T14:56:36.873Z,2.53
2022-10-05T14:57:49.908Z,1.40
2022-10-05T14:59:22.346Z,1.48
2022-10-05T15:00:26.135Z,1.63
2022-10-05T15:01:35.197Z,2.05
2022-10-05T15:03:21.554Z,1.70
2022-10-05T15:04:34.477Z,2.22
2022-10-05T15:05:47.712Z,1.55
2022-10-05T15:07:03.845Z,2.03
2022-10-05T15:08:21.087Z,1.73
2022-10-05T15:09:42.390Z,1.55
2022-10-05T15:10:51.131Z,1.55
2022-10-05T15:11:59.283Z,1.98
2022-10-05T15:13:15.229Z,3.67
2022-10-05T15:14:24.751Z,3.00
2022-10-05T15:15:34.582Z,2.15
2022-10-05T15:16:42.208Z,1.52
2022-10-05T15:17:52.582Z,20.58
2022-10-05T15:19:05.646Z,28.05
2022-10-05T15:20:24.631Z,8.15
2022-10-05T15:21:43.944Z,1.70
2022-10-05T15:22:55.955Z,3.15
2022-10-05T15:24:02.907Z,1.40
2022-10-05T15:25:17.712Z,1.60
2022-10-05T15:26:33.377Z,1.75
2022-10-05T15:28:04.209Z,1.73
2022-10-05T15:29:20.518Z,2.25
2022-10-05T15:30:24.634Z,1.70
2022-10-05T15:31:39.497Z,2.30
2022-10-05T15:32:59.828Z,2.33
2022-10-05T15:34:08.106Z,2.00
2022-10-05T15:35:37.349Z,1.65
2022-10-05T15:36:48.234Z,1.27
2022-10-05T15:37:55.483Z,2.30
2022-10-05T15:39:08.404Z,3.22
2022-10-05T15:40:27.072Z,4.15
2022-10-05T15:41:53.208Z,2.55
2022-10-05T15:43:01.810Z,1.65
2022-10-05T15:44:18.422Z,1.23
2022-10-05T15:45:29.960Z,3.17
2022-10-05T15:47:52.405Z,1.75
2022-10-05T15:49:08.582Z,3.03
2022-10-05T15:50:22.517Z,3.83
2022-10-05T15:51:42.417Z,2.55
2022-10-05T15:52:51.317Z,2.00
2022-10-05T15:54:16.546Z,2.17
2022-10-05T15:55:32.726Z,2.35
2022-10-05T15:56:38.719Z,2.42
2022-10-05T15:57:51.891Z,1.63
2022-10-05T15:58:55.624Z,1.65
2022-10-05T16:00:04.688Z,1.88
2022-10-05T16:01:11.934Z,2.67
2022-10-05T16:02:22.713Z,3.08
2022-10-05T16:03:38.295Z,2.50
2022-10-05T16:04:48.181Z,1.33
2022-10-05T16:06:09.000Z,1.00
2022-10-05T16:07:32.043Z,1.02
2022-10-05T16:08:54.351Z,2.35
2022-10-05T16:10:11.811Z,1.00
2022-10-05T16:11:36.785Z,1.35
2022-10-05T16:12:50.927Z,1.63
2022-10-05T16:14:05.387Z,1.23
2022-10-05T16:15:26.581Z,1.23
2022-10-05T16:16:38.154Z,0.90
2022-10-05T16:18:12.240Z,1.83
2022-10-05T16:19:22.199Z,1.58
2022-10-05T16:20:45.919Z,345.23
2022-10-05T16:21:56.765Z,436.83
2022-10-05T16:23:08.096Z,289.35
2022-10-05T16:24:24.705Z,160.02
2022-10-05T16:25:35.340Z,105.25
2022-10-05T16:26:58.672Z,180.05
2022-10-05T16:28:10.985Z,168.77
2022-10-05T16:29:25.028Z,315.70
2022-10-05T16:30:40.384Z,372.55
2022-10-05T16:31:56.943Z,408.48
2022-10-05T16:33:08.249Z,393.00
2022-10-05T16:34:23.368Z,345.80
2022-10-05T16:35:38.511Z,369.67
2022-10-05T16:36:55.951Z,415.20
2022-10-05T16:38:08.123Z,405.52
2022-10-05T16:39:18.723Z,494.48
2022-10-05T16:40:31.016Z,520.60
2022-10-05T16:41:39.098Z,747.95
2022-10-05T16:42:57.968Z,565.75
2022-10-05T16:44:13.041Z,712.80
2022-10-05T16:45:30.062Z,817.80
2022-10-05T16:46:42.544Z,682.47
2022-10-05T16:47:50.658Z,513.03
2022-10-05T16:49:04.152Z,417.25
2022-10-05T16:50:27.750Z,377.88
2022-10-05T16:51:40.693Z,402.52
2022-10-05T16:52:47.258Z,234.55
2022-10-05T16:54:01.334Z,152.23
2022-10-05T16:55:13.407Z,83.75
2022-10-05T16:56:21.288Z,85.50
2022-10-05T16:57:28.361Z,76.63
2022-10-05T16:58:47.890Z,58.22
2022-10-05T17:00:15.535Z,21.55
2022-10-05T17:01:42.224Z,7.13
2022-10-05T17:03:08.286Z,5.82
2022-10-05T17:04:31.584Z,4.50
2022-10-05T17:05:55.180Z,1.17
2022-10-05T17:07:14.404Z,3.20
2022-10-05T17:08:36.756Z,2.33
2022-10-05T17:10:05.936Z,3.78
2022-10-05T17:11:19.299Z,2.78
2022-10-05T17:12:42.431Z,2.20
2022-10-05T17:14:08.189Z,2.78
2022-10-05T17:15:29.704Z,2.50
2022-10-05T17:16:48.192Z,3.67
2022-10-05T17:18:04.030Z,3.38
2022-10-05T17:19:16.599Z,4.88
2022-10-05T17:20:42.440Z,4.70
2022-10-05T17:21:50.155Z,4.72
2022-10-05T17:22:59.289Z,6.20
2022-10-05T17:24:15.477Z,11.63
2022-10-05T17:25:25.290Z,7.88
2022-10-05T17:26:52.831Z,13.57
2022-10-05T17:28:00.294Z,7.72
2022-10-05T17:29:16.647Z,10.82
2022-10-05T17:30:37.771Z,4.82
2022-10-05T17:32:02.056Z,4.70
2022-10-05T17:33:22.489Z,2.95
2022-10-05T17:34:29.242Z,1.92
2022-10-05T17:36:00.979Z,3.00
2022-10-05T17:37:17.981Z,3.53
2022-10-05T17:38:25.114Z,5.13
2022-10-05T17:39:46.813Z,7.35
2022-10-05T17:41:18.380Z,5.32
2022-10-05T17:42:51.740Z,6.43
2022-10-05T17:44:27.208Z,3.05
2022-10-05T17:45:54.365Z,2.65
2022-10-05T17:47:00.844Z,2.63
2022-10-05T17:48:05.392Z,2.67
2022-10-05T17:49:23.316Z,2.80
2022-10-05T17:50:54.506Z,3.05
2022-10-05T17:52:14.238Z,2.47
2022-10-05T17:53:50.019Z,1.92
2022-10-05T17:55:30.164Z,2.97
2022-10-05T17:56:56.044Z,1.95
2022-10-05T17:58:00.775Z,3.25
2022-10-05T17:59:07.494Z,2.15
2022-10-05T18:00:32.474Z,2.40
2022-10-05T18:01:42.226Z,2.58
2022-10-05T18:02:44.321Z,2.30
2022-10-05T18:03:51.836Z,2.92
2022-10-05T18:05:05.424Z,2.90
2022-10-05T18:06:32.387Z,2.53
2022-10-05T18:07:38.357Z,1.73
2022-10-05T18:08:41.507Z,1.95
2022-10-05T18:10:22.152Z,1.75
2022-10-05T18:11:40.636Z,2.33
2022-10-05T18:12:50.584Z,1.83
2022-10-05T18:14:16.104Z,3.13
2022-10-05T18:15:49.357Z,32.38
2022-10-05T18:17:02.514Z,95.85
2022-10-05T18:18:38.710Z,8.52
2022-10-05T18:19:41.594Z,20.55
2022-10-05T18:21:18.474Z,185.38
2022-10-05T18:22:30.969Z,165.82
2022-10-05T18:23:36.223Z,226.77
2022-10-05T18:25:06.399Z,230.55
2022-10-05T18:26:26.555Z,233.98
2022-10-05T18:28:07.075Z,232.27
2022-10-05T18:29:39.192Z,223.93
2022-10-05T18:31:02.239Z,254.30
2022-10-05T18:32:14.101Z,207.57
2022-10-05T18:33:50.032Z,211.27
2022-10-05T18:35:02.192Z,304.50
2022-10-05T18:36:22.217Z,327.08
